CONNECT WITH FLYNQY PILOT TRAINING

Newquay Five Day Forecast

This Weather Widget is provided by the Met Office

EGHQ TAF and METAR

METAR

EGHQ 240720Z 11006KT CAVOK 04/01 Q1025

TAF

TAF EGHQ 240658Z 2406/2415 08008KT CAVOK